Aérodrome :
LOGIN :

S'inscrire | Disclaimer

   EN    FR    IT 

 










Légende :    VFR   VFR Marginal   IFR   IFR Intensif   IFR Très Intensif
Visi : 
Plafond : 
>= 8 km
>= 3000ft
5 à 8 km
1000 à 3000 ft
1500m à 5 km
500 à 1000 ft
800 à 1500m
200 à 500 ft
< 800m
< 200 ft
Symboles :   Orages  Brouillard  Fortes neiges  Fortes précipitations  Vent > 20 kt
SIGMETs :   Divers  Orages  Givrage  Turbulence  Onde Orograph.  Cendres Volcan.






- Altitude de l'aérodrome : 63 ft
- Code IATA : BZM


EHWO - Woensdrecht Airbase

DERNIER METAR :
  • 151825Z AUTO 22006KT 9999 FEW026 OVC030 14/12 Q1007 BLU

METARs EXPIRÉS :
  • 151755Z AUTO 22005KT 190V250 9999 FEW022 SCT026 BKN030 15/12 Q1006 BLU
  • 151743Z AUTO 22007KT 9999 FEW021 SCT024 BKN055 15/12 Q1006 WHT
  • 151725Z AUTO 22006KT 190V250 9999 OVC044 15/12 Q1006 BLU
  • 151655Z AUTO 22005KT 9999 FEW049 OVC120 15/12 Q1006 BLU
  • 151626Z AUTO 21004KT 170V240 9999 FEW020 SCT051 OVC110 15/12 Q1006 BLU
  • 151625Z AUTO 21004KT 160V240 9999 SCT018 OVC110 15/12 Q1005 WHT
  • 151602Z AUTO 19003KT 160V220 9999 FEW017 BKN022 OVC100 15/13 Q1005 WHT

TAF TAF EHWO
Valide du 15 à 09h jusqu'au 15 à 21h UTC


150855Z 1509/1521 22007KT 9999 SCT015 BKN020 OVC070
TEMPO 1509/1516 SCT013
PROB30
TEMPO 1516/1521 SCT018CB BKN025



MET'MAP, la Météo Aéronautique d'un coup d'oeil ! - Copyright ORBIFLY Décembre 2007 - Disclaimer

ORBIFLY MET'MAP TEAM :

Programmation & Développement : Alexandra Zaïnal
Conception & Développement : Baudouin d'Aumeries
Co-Programmation & Développement : Marc-Olivier Méhu
Soutien technique & logistique : Manuel Goepfert

Contact : metmap@orbifly.com




SOURCES & CREDITS :

   NOAA